Terminal Aerodrome Forecast
Issued by NWS Cleveland, OH

Home | Current Version | Previous Version | Graphics & Text | Print | Product List | Glossary On
Versions: 1 2 3 4 5 6 7 8 9 10 11 12 13 14 15 16 17 18 19 20 21
052
FTUS41 KCLE 231746
TAFCLE
TAF
KCLE 231746Z 2318/2424 15015KT P6SM -SHRA BKN050 OVC080
      WS020/15050KT
      TEMPO 2318/2321 15017G25KT 4SM RA BKN015
     FM232100 16018G28KT P6SM -SHRA BKN035
     FM240300 22020G30KT P6SM -SHRA OVC025
     FM240800 22015G25KT P6SM OVC035
     FM241000 20013KT P6SM VCSH BKN030
     FM241500 20015G25KT P6SM VCSH BKN035=

USA.gov is the U.S. government's official web portal to all federal, state and local government web resources and services.